»·PEaware :: HAWG11 KLSV-KLSV

HAWG11 :: KLSV-KLSV

FLIGHT INFORMATION

Flight Status: Arrived
Operator: Unknown
More flights by this operator :: More flights under this callsign
Pilot: Logan D. (20254)
Aircraft: FAIRCHILD A-10 THUNDERBOLT 2
(A10)
More flights by this aircraft type
Origin: KLSV Nellis AFB
United States
Destination: KLSV Nellis AFB
United States
More flights between these airports :: More routes between these airports
Route: +LSV FYTTR5 FYTTR INS/D1+00 INS LSV
File this flight plan on PilotEdge
Remarks: +CW /
Altitude:
(Current/Filed)
15,000ft
Speed:
(Current/Filed)
250kts
Departed: 15-Jul-19 10:58 AM
Arrived: 15-Jul-19 12:21 PM
Distance/Time
Traveled:
1nm/1:23
Distance/Time
To Go:
Arrived

Flight Plot

Page will automatically refresh every two minutes.

Flight plan parsing failed; only flown route is shown


Map Options




Map Legend


Flown Route
Filed Route
Departure Airport
Arrival Airport
Navaid (VOR, NDB)
Fix

Horizontal Profiles

Position Reports

Time Latitude Longitude Heading Altitude Ground
Speed
15-Jul-19 10:42 36.229401 -115.024022 86 1850ft 0kts
15-Jul-19 10:43 36.229401 -115.024022 86 1850ft 0kts
15-Jul-19 10:44 36.229401 -115.024022 86 1850ft 0kts
15-Jul-19 10:45 36.229401 -115.024022 86 1850ft 0kts
15-Jul-19 10:46 36.229401 -115.024022 86 1850ft 0kts
15-Jul-19 10:48 36.229401 -115.024022 86 1850ft 0kts
15-Jul-19 10:49 36.229401 -115.024022 86 1850ft 0kts
15-Jul-19 10:50 36.229401 -115.024022 86 1850ft 0kts
15-Jul-19 10:51 36.229401 -115.024022 86 1850ft 0kts
15-Jul-19 10:52 36.230082 -115.024901 279 1850ft 10kts
15-Jul-19 10:53 36.230724 -115.030683 269 1849ft 18kts
15-Jul-19 10:54 36.227434 -115.035227 220 1850ft 22kts
15-Jul-19 10:55 36.222865 -115.040186 221 1849ft 18kts
15-Jul-19 10:56 36.224317 -115.043223 321 1848ft 1kts
15-Jul-19 10:57 36.224902 -115.043773 332 1848ft 12kts
15-Jul-19 10:58 36.231488 -115.037084 39 1850ft 130kts
15-Jul-19 10:59 36.271311 -114.993909 39 3032ft 218kts
15-Jul-19 11:00 36.318610 -114.944729 38 5867ft 210kts
15-Jul-19 11:01 36.369620 -114.961355 283 8099ft 223kts
15-Jul-19 11:02 36.338570 -115.029815 219 9503ft 259kts
15-Jul-19 11:03 36.280573 -115.089514 223 10633ft 278kts
15-Jul-19 11:04 36.274468 -115.179487 283 10936ft 295kts
15-Jul-19 11:05 36.290126 -115.275382 279 12618ft 267kts
15-Jul-19 11:06 36.303476 -115.364216 279 14497ft 252kts
15-Jul-19 11:06 36.314156 -115.436990 278 15318ft 272kts
15-Jul-19 11:08 36.330388 -115.553012 278 15318ft 302kts
15-Jul-19 11:09 36.344839 -115.657313 278 15317ft 308kts
15-Jul-19 11:09 36.374409 -115.733473 332 15276ft 307kts
15-Jul-19 11:10 36.456104 -115.718469 18 15358ft 307kts
15-Jul-19 11:12 36.550522 -115.675176 19 15353ft 309kts
15-Jul-19 11:12 36.618080 -115.644250 19 15353ft 309kts
15-Jul-19 11:13 36.701537 -115.624278 343 15261ft 311kts
15-Jul-19 11:14 36.758456 -115.697509 279 15287ft 309kts
15-Jul-19 11:15 36.731019 -115.793466 216 15287ft 308kts
15-Jul-19 11:16 36.658800 -115.782428 101 15026ft 307kts
15-Jul-19 11:17 36.702867 -115.698598 38 15021ft 308kts
15-Jul-19 11:18 36.779069 -115.670544 315 14468ft 318kts
15-Jul-19 11:19 36.770004 -115.769755 245 14731ft 306kts
15-Jul-19 11:20 36.725068 -115.859549 205 14721ft 310kts
15-Jul-19 11:21 36.674998 -115.804566 71 14526ft 310kts
15-Jul-19 11:22 36.720132 -115.712581 55 14493ft 313kts
15-Jul-19 11:23 36.788278 -115.667246 326 14146ft 318kts
15-Jul-19 11:24 36.790089 -115.762644 228 14008ft 314kts
15-Jul-19 11:25 36.725033 -115.827880 163 13943ft 311kts
15-Jul-19 11:26 36.708869 -115.740300 57 14158ft 306kts
15-Jul-19 11:27 36.763083 -115.660872 358 14226ft 307kts
15-Jul-19 11:28 36.813616 -115.734438 273 14814ft 306kts
15-Jul-19 11:29 36.750653 -115.789681 167 13996ft 317kts
15-Jul-19 11:30 36.725380 -115.710061 57 13660ft 321kts
15-Jul-19 11:31 36.794066 -115.669748 315 13613ft 316kts
15-Jul-19 11:32 36.783458 -115.764003 218 13559ft 312kts
15-Jul-19 11:33 36.709885 -115.818671 176 13486ft 327kts
15-Jul-19 11:34 36.688365 -115.740444 50 14161ft 316kts
15-Jul-19 11:35 36.753981 -115.669795 4 14316ft 310kts
15-Jul-19 11:36 36.803950 -115.740064 268 14174ft 325kts
15-Jul-19 11:37 36.830935 -115.828549 18 12002ft 274kts
15-Jul-19 11:38 36.813532 -115.736474 124 8863ft 352kts
15-Jul-19 11:39 36.748334 -115.640272 168 4178ft 346kts
15-Jul-19 11:40 36.705480 -115.698277 308 6340ft 297kts
15-Jul-19 11:41 36.766745 -115.679212 104 4681ft 314kts
15-Jul-19 11:42 36.729556 -115.648223 260 5261ft 262kts
15-Jul-19 11:43 36.678138 -115.682903 127 6948ft 291kts
15-Jul-19 11:44 36.722265 -115.629049 3 7582ft 306kts
15-Jul-19 11:45 36.813413 -115.621359 3 4971ft 356kts
15-Jul-19 11:46 36.818036 -115.676094 175 6810ft 286kts
15-Jul-19 11:47 36.815347 -115.623022 6 3909ft 339kts
15-Jul-19 11:48 36.849225 -115.674093 232 7290ft 249kts
15-Jul-19 11:49 36.829119 -115.626580 96 5294ft 336kts
15-Jul-19 11:50 36.754653 -115.611539 111 5042ft 328kts
15-Jul-19 11:51 36.824820 -115.609481 339 4261ft 327kts
15-Jul-19 11:52 36.792684 -115.669318 182 7312ft 259kts
15-Jul-19 11:53 36.807850 -115.615141 354 4210ft 343kts
15-Jul-19 11:54 36.798119 -115.587428 261 5419ft 313kts
15-Jul-19 11:55 36.869343 -115.624860 319 7401ft 205kts
15-Jul-19 11:56 36.841125 -115.686124 192 9294ft 297kts
15-Jul-19 11:57 36.754373 -115.668297 161 8773ft 331kts
15-Jul-19 11:58 36.669821 -115.629631 148 8588ft 317kts
15-Jul-19 11:59 36.631422 -115.538428 83 8586ft 311kts
15-Jul-19 12:00 36.636668 -115.438046 137 8411ft 311kts
15-Jul-19 12:01 36.574164 -115.472090 275 7595ft 316kts
15-Jul-19 12:02 36.630807 -115.548551 315 8042ft 300kts
15-Jul-19 12:03 36.655564 -115.642897 261 8116ft 308kts
15-Jul-19 12:04 36.621448 -115.734280 190 8439ft 308kts
15-Jul-19 12:05 36.559801 -115.665337 119 8118ft 330kts
15-Jul-19 12:06 36.504467 -115.574080 130 7666ft 339kts
15-Jul-19 12:07 36.446410 -115.482424 126 7129ft 331kts
15-Jul-19 12:08 36.390560 -115.391953 126 7125ft 328kts
15-Jul-19 12:09 36.332460 -115.304412 125 6708ft 288kts
15-Jul-19 12:10 36.304856 -115.226166 107 6118ft 260kts
15-Jul-19 12:11 36.284437 -115.150922 106 5171ft 216kts
15-Jul-19 12:12 36.249062 -115.091515 172 4549ft 233kts
15-Jul-19 12:13 36.205951 -115.071072 72 3575ft 169kts
15-Jul-19 12:14 36.240380 -115.031853 39 2031ft 174kts
15-Jul-19 12:15 36.289130 -115.011650 0 3490ft 225kts
15-Jul-19 12:16 36.321899 -114.967367 116 4862ft 190kts
15-Jul-19 12:17 36.285611 -114.982062 220 3572ft 161kts
15-Jul-19 12:18 36.253517 -115.017626 219 2160ft 147kts
15-Jul-19 12:19 36.230865 -115.042188 222 1850ft 56kts
15-Jul-19 12:20 36.227824 -115.048769 308 1852ft 10kts
15-Jul-19 12:21 36.228568 -115.048487 129 1853ft 0kts
15-Jul-19 12:22 36.228568 -115.048487 129 1853ft 0kts

Navigation Log

Ident Type
Flight plan parsing failed, navigation log unavailable